Terminal Aerodrome Forecast
Issued by NWS

Home | Current Version | Previous Version | Graphics & Text | Print | Product List | Glossary Off
Versions: 1 2 3 4 5 6 7 8 9 10 11 12 13 14 15 16 17 18 19 20 21 22 23 24 25 26 27 28 29 30 31 32 33 34 35

000
FTUS43 KGRB 050520
TAFRHI
TAF
KRHI 050520Z 0506/0606 00000KT P6SM SCT040
      TEMPO 0509/0513 1SM BR SCT005
     FM051400 21008KT P6SM SCT040
     FM051900 19009G16KT P6SM SCT045
     FM052300 19006KT P6SM SKC=

USA.gov is the U.S. government's official web portal to all federal, state and local government web resources and services.